createdAt,value
2023-08-31T00:01:06.328Z,10.98
2023-08-31T00:03:34.066Z,12.70
2023-08-31T00:06:05.182Z,8.85
2023-08-31T00:08:34.254Z,8.68
2023-08-31T00:11:02.589Z,13.82
2023-08-31T00:13:30.497Z,10.52
2023-08-31T00:15:59.792Z,16.67
2023-08-31T00:18:27.776Z,9.98
2023-08-31T00:20:55.263Z,9.98
2023-08-31T00:23:22.767Z,13.82
2023-08-31T00:25:50.109Z,13.80
2023-08-31T00:28:19.619Z,11.23
2023-08-31T00:30:47.874Z,14.30
2023-08-31T00:33:16.744Z,14.05
2023-08-31T00:35:47.235Z,12.15
2023-08-31T00:38:16.022Z,13.20
2023-08-31T00:40:46.962Z,12.90
2023-08-31T00:43:17.185Z,13.18
2023-08-31T00:45:46.373Z,12.05
2023-08-31T00:48:18.210Z,10.82
2023-08-31T00:50:46.795Z,11.27
2023-08-31T00:53:15.355Z,13.20
2023-08-31T00:55:44.322Z,11.73
2023-08-31T00:58:12.053Z,13.35
2023-08-31T01:00:51.361Z,12.30
2023-08-31T01:03:25.872Z,11.93
2023-08-31T01:06:03.114Z,14.57
2023-08-31T01:08:43.673Z,11.95
2023-08-31T01:11:21.723Z,15.68
2023-08-31T01:13:58.115Z,12.98
2023-08-31T01:16:27.433Z,15.38
2023-08-31T01:18:55.768Z,12.40
2023-08-31T01:21:31.832Z,16.15
2023-08-31T01:23:59.689Z,14.52
2023-08-31T01:26:27.981Z,11.18
2023-08-31T01:28:56.975Z,13.75
2023-08-31T01:31:24.344Z,15.35
2023-08-31T01:33:52.420Z,14.40
2023-08-31T01:36:29.115Z,14.10
2023-08-31T01:39:15.288Z,15.10
2023-08-31T01:41:47.541Z,13.45
2023-08-31T01:44:18.012Z,13.03
2023-08-31T01:46:47.782Z,13.45
2023-08-31T01:49:15.874Z,12.50
2023-08-31T01:51:43.407Z,15.57
2023-08-31T01:54:11.086Z,16.05
2023-08-31T01:56:39.896Z,13.63
2023-08-31T01:59:07.352Z,11.77
2023-08-31T02:01:35.161Z,15.38
2023-08-31T02:04:02.919Z,14.30
2023-08-31T02:06:30.320Z,14.02
2023-08-31T02:08:57.617Z,19.10
2023-08-31T02:11:25.190Z,15.30
2023-08-31T02:13:56.264Z,18.27
2023-08-31T02:16:23.655Z,14.07
2023-08-31T02:18:51.192Z,14.00
2023-08-31T02:21:19.227Z,12.73
2023-08-31T02:23:46.735Z,14.45
2023-08-31T02:26:14.212Z,12.13
2023-08-31T02:28:41.532Z,15.05
2023-08-31T02:31:11.392Z,14.98
2023-08-31T02:33:38.848Z,17.20
2023-08-31T02:36:06.303Z,12.65
2023-08-31T02:38:33.529Z,13.48
2023-08-31T02:41:00.971Z,13.18
2023-08-31T02:43:29.762Z,19.42
2023-08-31T02:46:00.630Z,14.32
2023-08-31T02:48:29.390Z,18.58
2023-08-31T02:50:59.717Z,13.45
2023-08-31T02:53:27.272Z,13.02
2023-08-31T02:55:55.050Z,13.38
2023-08-31T02:58:22.559Z,13.05
2023-08-31T03:00:50.039Z,14.23
2023-08-31T03:03:18.506Z,12.23
2023-08-31T03:05:46.300Z,12.80
2023-08-31T03:08:13.644Z,17.55
2023-08-31T03:10:42.149Z,12.20
2023-08-31T03:13:09.752Z,15.85
2023-08-31T03:15:39.043Z,16.98
2023-08-31T03:18:07.597Z,17.00
2023-08-31T03:20:35.128Z,11.90
2023-08-31T03:23:02.735Z,16.27
2023-08-31T03:25:30.774Z,13.93
2023-08-31T03:27:58.178Z,13.18
2023-08-31T03:30:25.579Z,17.02
2023-08-31T03:32:53.072Z,15.65
2023-08-31T03:35:20.618Z,12.23
2023-08-31T03:37:49.421Z,14.27
2023-08-31T03:40:16.879Z,14.70
2023-08-31T03:42:44.381Z,13.95
2023-08-31T03:45:13.264Z,15.35
2023-08-31T03:47:40.877Z,14.32
2023-08-31T03:50:09.947Z,10.75
2023-08-31T03:52:37.679Z,11.77
2023-08-31T03:55:05.340Z,12.40
2023-08-31T03:57:34.200Z,15.18
2023-08-31T04:00:13.974Z,16.23
2023-08-31T04:02:44.445Z,13.63
2023-08-31T04:05:16.198Z,15.45
2023-08-31T04:07:45.705Z,18.25
2023-08-31T04:10:12.961Z,16.15
2023-08-31T04:12:40.704Z,18.55
2023-08-31T04:15:08.811Z,13.10
2023-08-31T04:17:37.217Z,11.98
2023-08-31T04:20:07.110Z,15.45
2023-08-31T04:22:34.456Z,13.63
2023-08-31T04:25:01.796Z,15.70
2023-08-31T04:27:31.142Z,16.08
2023-08-31T04:30:00.250Z,11.52
2023-08-31T04:32:28.042Z,13.77
2023-08-31T04:34:57.716Z,17.42
2023-08-31T04:37:25.273Z,11.95
2023-08-31T04:39:52.501Z,16.48
2023-08-31T04:42:20.149Z,13.98
2023-08-31T04:44:47.506Z,18.58
2023-08-31T04:47:14.965Z,16.95
2023-08-31T04:49:42.272Z,15.20
2023-08-31T04:52:09.758Z,14.38
2023-08-31T04:54:36.995Z,13.00
2023-08-31T04:57:04.697Z,12.82
2023-08-31T04:59:31.865Z,11.52
2023-08-31T05:01:59.875Z,14.27
2023-08-31T05:04:27.324Z,12.85
2023-08-31T05:06:54.633Z,14.65
2023-08-31T05:09:21.787Z,12.30
2023-08-31T05:11:49.044Z,18.85
2023-08-31T05:14:16.173Z,13.35
2023-08-31T05:16:44.453Z,12.48
2023-08-31T05:19:11.662Z,12.95
2023-08-31T05:21:39.685Z,12.02
2023-08-31T05:24:07.110Z,16.17
2023-08-31T05:26:34.505Z,13.23
2023-08-31T05:29:01.607Z,13.27
2023-08-31T05:31:29.007Z,18.17
2023-08-31T05:33:56.365Z,13.93
2023-08-31T05:36:23.751Z,17.80
2023-08-31T05:38:52.916Z,12.88
2023-08-31T05:41:20.152Z,11.93
2023-08-31T05:43:47.206Z,15.73
2023-08-31T05:46:14.442Z,12.05
2023-08-31T05:48:41.691Z,10.30
2023-08-31T05:51:08.963Z,11.32
2023-08-31T05:53:36.352Z,11.63
2023-08-31T05:56:05.479Z,17.35
2023-08-31T05:58:34.847Z,11.57
2023-08-31T06:01:03.606Z,14.45
2023-08-31T06:03:31.951Z,16.02
2023-08-31T06:06:00.023Z,10.55
2023-08-31T06:08:27.530Z,12.40
2023-08-31T06:10:54.905Z,12.15
2023-08-31T06:13:22.074Z,12.65
2023-08-31T06:15:49.464Z,15.90
2023-08-31T06:18:16.614Z,11.77
2023-08-31T06:20:43.913Z,10.82
2023-08-31T06:23:12.731Z,11.77
2023-08-31T06:25:40.080Z,15.23
2023-08-31T06:28:09.852Z,10.32
2023-08-31T06:30:37.290Z,18.98
2023-08-31T06:33:04.851Z,14.07
2023-08-31T06:35:32.362Z,11.05
2023-08-31T06:37:59.546Z,12.10
2023-08-31T06:40:26.982Z,10.77
2023-08-31T06:42:54.115Z,11.98
2023-08-31T06:45:21.483Z,13.70
2023-08-31T06:47:48.605Z,15.15
2023-08-31T06:50:15.930Z,14.38
2023-08-31T06:52:43.253Z,11.30
2023-08-31T06:55:12.044Z,16.27
2023-08-31T06:57:39.586Z,10.20
2023-08-31T07:00:09.397Z,13.73
2023-08-31T07:02:40.772Z,10.05
2023-08-31T07:05:08.219Z,19.27
2023-08-31T07:07:35.493Z,16.05
2023-08-31T07:10:02.753Z,10.27
2023-08-31T07:12:29.884Z,15.10
2023-08-31T07:14:57.324Z,14.30
2023-08-31T07:17:24.443Z,16.02
2023-08-31T07:19:51.629Z,11.82
2023-08-31T07:22:18.907Z,12.30
2023-08-31T07:24:46.476Z,11.07
2023-08-31T07:27:13.625Z,13.88
2023-08-31T07:29:41.641Z,11.77
2023-08-31T07:32:08.935Z,12.60
2023-08-31T07:34:36.502Z,11.23
2023-08-31T07:37:04.956Z,14.45
2023-08-31T07:39:32.254Z,15.07
2023-08-31T07:42:00.501Z,16.35
2023-08-31T07:44:27.756Z,10.75
2023-08-31T07:46:55.025Z,11.07
2023-08-31T07:49:22.293Z,12.27
2023-08-31T07:51:49.590Z,11.20
2023-08-31T07:54:19.813Z,11.63
2023-08-31T07:56:46.986Z,11.90
2023-08-31T07:59:15.832Z,11.88
2023-08-31T08:01:42.996Z,13.05
2023-08-31T08:04:10.833Z,11.27
2023-08-31T08:06:38.107Z,15.52
2023-08-31T08:09:05.804Z,12.68
2023-08-31T08:11:33.213Z,11.15
2023-08-31T08:14:00.407Z,14.38
2023-08-31T08:16:27.943Z,11.18
2023-08-31T08:18:55.141Z,12.18
2023-08-31T08:21:22.307Z,12.10
2023-08-31T08:23:52.044Z,12.10
2023-08-31T08:26:19.452Z,10.82
2023-08-31T08:28:47.259Z,10.63
2023-08-31T08:31:14.463Z,13.88
2023-08-31T08:33:41.902Z,12.70
2023-08-31T08:36:09.153Z,11.07
2023-08-31T08:38:36.427Z,11.70
2023-08-31T08:41:05.739Z,14.98
2023-08-31T08:43:35.202Z,17.85
2023-08-31T08:46:07.302Z,12.70
2023-08-31T08:48:36.779Z,11.60
2023-08-31T08:51:05.609Z,9.55
2023-08-31T08:53:32.960Z,12.55
2023-08-31T08:56:00.310Z,9.63
2023-08-31T08:58:27.750Z,10.60
2023-08-31T09:00:57.792Z,12.85
2023-08-31T09:03:25.759Z,9.70
2023-08-31T09:05:53.239Z,10.77
2023-08-31T09:08:27.790Z,13.07
2023-08-31T09:10:59.129Z,9.40
2023-08-31T09:13:30.435Z,12.85
2023-08-31T09:15:59.030Z,9.90
2023-08-31T09:18:32.906Z,9.07
2023-08-31T09:21:02.672Z,9.25
2023-08-31T09:23:30.192Z,9.77
2023-08-31T09:25:58.188Z,11.02
2023-08-31T09:28:28.753Z,11.55
2023-08-31T09:31:07.913Z,8.63
2023-08-31T09:33:38.217Z,13.48
2023-08-31T09:36:08.516Z,9.07
2023-08-31T09:38:42.587Z,9.05
2023-08-31T09:41:10.220Z,9.52
2023-08-31T09:43:37.363Z,12.70
2023-08-31T09:46:07.164Z,11.15
2023-08-31T09:48:34.804Z,13.18
2023-08-31T09:51:05.758Z,9.43
2023-08-31T09:53:37.019Z,9.63
2023-08-31T09:56:06.808Z,10.50
2023-08-31T09:58:34.417Z,8.98
2023-08-31T10:01:03.619Z,12.07
2023-08-31T10:03:34.136Z,10.82
2023-08-31T10:06:01.767Z,10.35
2023-08-31T10:08:32.562Z,10.50
2023-08-31T10:11:04.720Z,8.40
2023-08-31T10:13:36.618Z,6.97
2023-08-31T10:16:06.304Z,7.53
2023-08-31T10:18:37.027Z,10.95
2023-08-31T10:21:05.171Z,8.10
2023-08-31T10:23:34.078Z,14.43
2023-08-31T10:26:02.135Z,7.70
2023-08-31T10:28:29.765Z,7.55
2023-08-31T10:31:00.560Z,10.18
2023-08-31T10:33:27.817Z,9.65
2023-08-31T10:35:57.856Z,8.93
2023-08-31T10:38:29.668Z,8.70
2023-08-31T10:41:20.962Z,8.45
2023-08-31T10:43:51.569Z,7.05
2023-08-31T10:46:25.619Z,12.65
2023-08-31T10:48:55.538Z,9.60
2023-08-31T10:51:24.964Z,11.35
2023-08-31T10:53:52.530Z,8.80
2023-08-31T10:56:20.454Z,9.13
2023-08-31T10:58:50.908Z,8.63
2023-08-31T11:01:39.662Z,7.90
2023-08-31T11:04:12.125Z,8.20
2023-08-31T11:06:39.501Z,9.18
2023-08-31T11:09:08.869Z,6.80
2023-08-31T11:11:40.071Z,11.60
2023-08-31T11:14:10.629Z,8.57
2023-08-31T11:16:39.842Z,10.43
2023-08-31T11:19:07.190Z,8.43
2023-08-31T11:21:34.426Z,9.45
2023-08-31T11:24:01.671Z,7.05
2023-08-31T11:26:33.015Z,9.70
2023-08-31T11:29:00.262Z,10.55
2023-08-31T11:31:28.228Z,7.47
2023-08-31T11:33:57.229Z,10.90
2023-08-31T11:36:26.314Z,11.82
2023-08-31T11:38:54.262Z,8.48
2023-08-31T11:41:21.907Z,8.93
2023-08-31T11:43:50.184Z,13.20
2023-08-31T11:46:18.633Z,10.35
2023-08-31T11:48:46.103Z,7.30
2023-08-31T11:51:14.085Z,9.65
2023-08-31T11:53:41.371Z,9.98
2023-08-31T11:56:08.525Z,9.65
2023-08-31T11:58:51.636Z,11.30
2023-08-31T12:03:50.916Z,13.73
2023-08-31T12:06:19.744Z,9.45
2023-08-31T12:08:46.918Z,9.23
2023-08-31T12:11:14.302Z,12.57
2023-08-31T12:13:41.454Z,8.77
2023-08-31T12:16:11.711Z,7.93
2023-08-31T12:18:39.642Z,13.23
2023-08-31T12:21:07.948Z,11.65
2023-08-31T12:23:35.203Z,10.30
2023-08-31T12:26:04.136Z,8.10
2023-08-31T12:28:31.245Z,7.32
2023-08-31T12:30:58.558Z,8.63
2023-08-31T12:33:26.176Z,7.50
2023-08-31T12:35:53.652Z,8.38
2023-08-31T12:38:21.186Z,7.22
2023-08-31T12:40:48.558Z,7.88
2023-08-31T12:43:17.606Z,8.30
2023-08-31T12:45:45.356Z,7.95
2023-08-31T12:48:12.634Z,8.57
2023-08-31T12:50:39.885Z,8.63
2023-08-31T12:53:07.063Z,7.68
2023-08-31T12:55:34.323Z,8.77
2023-08-31T12:58:01.566Z,7.60
2023-08-31T13:00:28.796Z,9.10
2023-08-31T13:02:56.379Z,7.28
2023-08-31T13:05:23.873Z,10.30
2023-08-31T13:07:51.068Z,7.32
2023-08-31T13:10:18.452Z,6.65
2023-08-31T13:12:45.555Z,7.80
2023-08-31T13:15:14.257Z,7.43
2023-08-31T13:17:41.977Z,9.05
2023-08-31T13:20:09.734Z,8.35
2023-08-31T13:22:37.020Z,6.70
2023-08-31T13:25:06.246Z,6.72
2023-08-31T13:27:34.594Z,7.22
2023-08-31T13:30:02.060Z,7.25
2023-08-31T13:32:29.303Z,6.82
2023-08-31T13:34:56.647Z,7.05
2023-08-31T13:37:24.663Z,8.02
2023-08-31T13:39:53.856Z,6.93
2023-08-31T13:42:22.532Z,7.15
2023-08-31T13:44:49.793Z,9.07
2023-08-31T13:47:16.974Z,7.85
2023-08-31T13:49:44.185Z,7.07
2023-08-31T13:52:11.841Z,7.82
2023-08-31T13:54:39.136Z,10.10
2023-08-31T13:57:06.274Z,7.18
2023-08-31T13:59:33.474Z,7.25
2023-08-31T14:02:00.653Z,7.68
2023-08-31T14:04:27.869Z,10.82
2023-08-31T14:06:55.090Z,6.85
2023-08-31T14:09:22.372Z,8.82
2023-08-31T14:11:49.522Z,9.15
2023-08-31T14:14:16.811Z,5.95
2023-08-31T14:16:45.232Z,7.47
2023-08-31T14:19:12.655Z,9.07
2023-08-31T14:21:39.802Z,5.63
2023-08-31T14:24:07.972Z,6.10
2023-08-31T14:26:35.324Z,6.05
2023-08-31T14:29:02.686Z,6.20
2023-08-31T14:31:29.958Z,5.93
2023-08-31T14:33:57.515Z,6.28
2023-08-31T14:36:27.234Z,6.82
2023-08-31T14:38:54.572Z,6.13
2023-08-31T14:41:21.769Z,5.93
2023-08-31T14:43:49.012Z,6.13
2023-08-31T14:46:16.252Z,7.03
2023-08-31T14:48:43.464Z,6.63
2023-08-31T14:51:11.153Z,6.72
2023-08-31T14:53:38.462Z,5.78
2023-08-31T14:56:05.620Z,6.13
2023-08-31T14:58:33.268Z,5.25
2023-08-31T15:01:01.361Z,6.53
2023-08-31T15:03:28.720Z,6.47
2023-08-31T15:05:55.992Z,6.80
2023-08-31T15:08:36.416Z,7.20
2023-08-31T15:11:04.172Z,6.47
2023-08-31T15:13:31.649Z,7.43
2023-08-31T15:16:00.708Z,6.47
2023-08-31T15:18:29.223Z,6.10
2023-08-31T15:20:56.710Z,6.35
2023-08-31T15:23:24.007Z,6.10
2023-08-31T15:25:51.212Z,5.30
2023-08-31T15:28:18.446Z,6.10
2023-08-31T15:30:45.772Z,7.07
2023-08-31T15:33:13.037Z,6.97
2023-08-31T15:35:40.267Z,6.53
2023-08-31T15:38:07.528Z,11.32
2023-08-31T15:40:34.856Z,8.43
2023-08-31T15:43:02.204Z,7.30
2023-08-31T15:45:29.523Z,7.32
2023-08-31T15:47:56.776Z,8.07
2023-08-31T15:50:23.973Z,6.95
2023-08-31T15:52:51.205Z,6.90
2023-08-31T15:55:18.494Z,7.00
2023-08-31T15:57:45.605Z,6.50
2023-08-31T16:00:13.082Z,6.07
2023-08-31T16:02:40.283Z,7.00
2023-08-31T16:05:08.244Z,13.25
2023-08-31T16:07:37.318Z,6.13
2023-08-31T16:10:05.596Z,6.90
2023-08-31T16:12:32.812Z,7.22
2023-08-31T16:15:00.195Z,6.47
2023-08-31T16:17:27.410Z,8.98
2023-08-31T16:19:54.700Z,5.85
2023-08-31T16:22:21.932Z,5.53
2023-08-31T16:24:49.250Z,5.50
2023-08-31T16:27:16.417Z,7.25
2023-08-31T16:29:43.746Z,7.72
2023-08-31T16:32:10.863Z,5.70
2023-08-31T16:34:39.270Z,6.95
2023-08-31T16:37:06.713Z,6.88
2023-08-31T16:39:33.933Z,5.88
2023-08-31T16:42:01.152Z,6.20
2023-08-31T16:44:28.423Z,5.97
2023-08-31T16:46:56.173Z,6.82
2023-08-31T16:49:25.266Z,7.70
2023-08-31T16:51:52.456Z,7.28
2023-08-31T16:54:19.732Z,7.63
2023-08-31T16:56:49.486Z,7.95
2023-08-31T16:59:17.594Z,6.88
2023-08-31T17:01:44.778Z,14.60
2023-08-31T17:04:12.011Z,7.55
2023-08-31T17:06:39.201Z,6.57
2023-08-31T17:09:08.924Z,6.78
2023-08-31T17:11:37.957Z,6.18
2023-08-31T17:14:06.074Z,9.98
2023-08-31T17:16:33.589Z,6.22
2023-08-31T17:19:00.950Z,8.07
2023-08-31T17:21:28.269Z,6.13
2023-08-31T17:23:55.609Z,7.47
2023-08-31T17:26:24.918Z,6.63
2023-08-31T17:28:52.133Z,6.32
2023-08-31T17:31:19.567Z,11.05
2023-08-31T17:33:49.525Z,7.40
2023-08-31T17:36:19.112Z,7.13
2023-08-31T17:38:47.296Z,7.78
2023-08-31T17:41:14.507Z,6.53
2023-08-31T17:43:41.756Z,7.05
2023-08-31T17:46:10.133Z,6.57
2023-08-31T17:48:38.311Z,7.38
2023-08-31T17:51:05.585Z,7.45
2023-08-31T17:53:32.873Z,6.63
2023-08-31T17:55:59.958Z,8.75
2023-08-31T17:58:27.217Z,7.00
2023-08-31T18:00:57.110Z,6.15
2023-08-31T18:03:25.006Z,5.97
2023-08-31T18:05:53.222Z,6.47
2023-08-31T18:08:23.173Z,7.55
2023-08-31T18:10:50.505Z,7.55
2023-08-31T18:13:18.086Z,7.10
2023-08-31T18:15:47.892Z,11.60
2023-08-31T18:18:15.754Z,7.28
2023-08-31T18:20:43.291Z,7.57
2023-08-31T18:23:10.804Z,6.70
2023-08-31T18:25:38.065Z,5.72
2023-08-31T18:28:05.695Z,6.20
2023-08-31T18:30:32.895Z,6.82
2023-08-31T18:33:03.008Z,7.40
2023-08-31T18:35:30.436Z,8.10
2023-08-31T18:37:57.687Z,9.65
2023-08-31T18:40:24.889Z,19.98
2023-08-31T18:42:52.328Z,18.42
2023-08-31T18:45:20.360Z,21.63
2023-08-31T18:47:47.689Z,13.25
2023-08-31T18:50:21.873Z,11.75
2023-08-31T18:52:50.306Z,12.63
2023-08-31T18:55:18.741Z,9.40
2023-08-31T18:57:46.204Z,10.43
2023-08-31T19:00:15.298Z,9.40
2023-08-31T19:02:46.113Z,8.55
2023-08-31T19:05:14.392Z,8.48
2023-08-31T19:07:42.816Z,8.40
2023-08-31T19:10:12.172Z,8.90
2023-08-31T19:12:39.591Z,10.98
2023-08-31T19:15:07.292Z,7.03
2023-08-31T19:17:34.561Z,7.13
2023-08-31T19:20:02.639Z,8.35
2023-08-31T19:22:29.979Z,7.55
2023-08-31T19:24:57.187Z,9.27
2023-08-31T19:27:24.511Z,8.43
2023-08-31T19:29:51.833Z,7.78
2023-08-31T19:32:18.940Z,10.05
2023-08-31T19:34:46.237Z,7.20
2023-08-31T19:37:13.938Z,6.43
2023-08-31T19:39:41.218Z,7.63
2023-08-31T19:42:08.529Z,7.68
2023-08-31T19:44:35.788Z,7.70
2023-08-31T19:47:14.497Z,7.72
2023-08-31T19:49:42.615Z,8.20
2023-08-31T19:52:09.728Z,9.70
2023-08-31T19:54:37.024Z,12.48
2023-08-31T19:57:04.480Z,8.40
2023-08-31T19:59:31.678Z,8.45
2023-08-31T20:01:58.817Z,7.95
2023-08-31T20:04:26.207Z,6.95
2023-08-31T20:06:53.588Z,7.03
2023-08-31T20:09:21.168Z,8.10
2023-08-31T20:11:48.606Z,7.43
2023-08-31T20:14:15.878Z,6.88
2023-08-31T20:16:45.541Z,5.95
2023-08-31T20:19:12.764Z,7.75
2023-08-31T20:21:39.930Z,7.25
2023-08-31T20:24:07.528Z,9.23
2023-08-31T20:26:34.916Z,7.68
2023-08-31T20:29:02.060Z,7.00
2023-08-31T20:31:29.472Z,6.30
2023-08-31T20:33:58.542Z,8.02
2023-08-31T20:36:26.076Z,7.07
2023-08-31T20:38:53.804Z,7.63
2023-08-31T20:41:21.176Z,6.10
2023-08-31T20:43:48.313Z,6.43
2023-08-31T20:46:15.601Z,6.90
2023-08-31T20:48:42.935Z,7.30
2023-08-31T20:51:12.365Z,6.18
2023-08-31T20:53:39.685Z,6.13
2023-08-31T20:56:08.937Z,7.60
2023-08-31T20:58:37.122Z,8.02
2023-08-31T21:01:07.509Z,6.53
2023-08-31T21:03:37.924Z,7.28
2023-08-31T21:06:05.312Z,7.00
2023-08-31T21:08:32.428Z,7.38
2023-08-31T21:11:01.256Z,8.52
2023-08-31T21:13:28.498Z,8.32
2023-08-31T21:15:56.682Z,7.90
2023-08-31T21:18:24.202Z,8.90
2023-08-31T21:20:51.810Z,6.50
2023-08-31T21:23:18.926Z,6.68
2023-08-31T21:25:46.328Z,7.90
2023-08-31T21:28:13.738Z,6.53
2023-08-31T21:30:42.603Z,7.65
2023-08-31T21:33:09.916Z,7.35
2023-08-31T21:35:41.295Z,8.75
2023-08-31T21:38:09.336Z,8.00
2023-08-31T21:40:38.399Z,7.13
2023-08-31T21:43:06.587Z,7.30
2023-08-31T21:45:34.738Z,6.53
2023-08-31T21:48:02.366Z,7.03
2023-08-31T21:50:33.931Z,10.90
2023-08-31T21:53:01.405Z,7.25
2023-08-31T21:55:29.246Z,8.68
2023-08-31T21:57:56.494Z,10.90
2023-08-31T22:00:23.941Z,6.85
2023-08-31T22:02:54.311Z,6.25
2023-08-31T22:05:26.417Z,7.80
2023-08-31T22:07:57.431Z,8.27
2023-08-31T22:10:26.479Z,6.45
2023-08-31T22:12:54.729Z,8.00
2023-08-31T22:15:25.524Z,7.05
2023-08-31T22:17:56.092Z,7.88
2023-08-31T22:20:25.767Z,8.80
2023-08-31T22:22:56.652Z,7.80
2023-08-31T22:25:26.164Z,9.15
2023-08-31T22:27:55.286Z,8.05
2023-08-31T22:30:22.816Z,8.30
2023-08-31T22:32:50.412Z,8.88
2023-08-31T22:35:17.822Z,9.02
2023-08-31T22:37:45.415Z,9.55
2023-08-31T22:40:14.377Z,8.77
2023-08-31T22:42:45.348Z,7.90
2023-08-31T22:45:13.153Z,7.53
2023-08-31T22:47:41.023Z,6.35
2023-08-31T22:50:27.370Z,6.97
2023-08-31T22:52:55.039Z,7.70
2023-08-31T22:55:22.363Z,7.68
2023-08-31T22:57:49.672Z,7.38
2023-08-31T23:00:17.225Z,7.82
2023-08-31T23:02:44.686Z,7.43
2023-08-31T23:05:12.064Z,7.40
2023-08-31T23:07:39.424Z,7.55
2023-08-31T23:10:13.323Z,7.65
2023-08-31T23:12:48.947Z,7.25
2023-08-31T23:15:16.276Z,8.30
2023-08-31T23:17:43.883Z,8.60
2023-08-31T23:20:11.548Z,10.43
2023-08-31T23:22:38.819Z,8.52
2023-08-31T23:25:06.408Z,9.23
2023-08-31T23:27:33.799Z,8.15
2023-08-31T23:30:01.018Z,8.95
2023-08-31T23:32:38.854Z,6.93
2023-08-31T23:35:07.352Z,7.40
2023-08-31T23:37:34.978Z,9.52
2023-08-31T23:40:05.668Z,9.35
2023-08-31T23:42:32.864Z,8.60
2023-08-31T23:45:00.164Z,7.10
2023-08-31T23:47:27.422Z,7.40
2023-08-31T23:49:57.276Z,8.15
2023-08-31T23:52:24.443Z,9.65
2023-08-31T23:54:51.891Z,6.68
2023-08-31T23:57:18.997Z,7.20
2023-08-31T23:59:46.321Z,7.78
